createdAt,value
2023-04-09T00:05:00.158Z,1024
2023-04-09T00:17:00.360Z,1023
2023-04-09T00:29:00.267Z,1023
2023-04-09T00:41:00.257Z,1023
2023-04-09T00:53:00.206Z,1023
2023-04-09T01:05:00.373Z,1023
2023-04-09T01:17:00.312Z,1023
2023-04-09T01:29:00.268Z,1023
2023-04-09T01:41:00.410Z,1023
2023-04-09T01:53:00.423Z,1022
2023-04-09T02:05:00.317Z,1022
2023-04-09T02:17:00.291Z,1022
2023-04-09T02:29:00.433Z,1022
2023-04-09T02:41:00.425Z,1022
2023-04-09T02:53:00.383Z,1022
2023-04-09T03:05:00.542Z,1022
2023-04-09T03:17:00.469Z,1022
2023-04-09T03:29:00.461Z,1022
2023-04-09T03:41:00.399Z,1021
2023-04-09T03:53:00.429Z,1021
2023-04-09T04:05:00.538Z,1021
2023-04-09T04:17:00.508Z,1021
2023-04-09T04:29:00.440Z,1021
2023-04-09T04:41:00.608Z,1020
2023-04-09T04:53:00.582Z,1020
2023-04-09T05:05:00.542Z,1020
2023-04-09T05:17:00.491Z,1020
2023-04-09T05:29:00.637Z,1020
2023-04-09T05:41:00.571Z,1019
2023-04-09T05:53:00.598Z,1019
2023-04-09T06:05:00.733Z,1020
2023-04-09T06:17:00.691Z,1020
2023-04-09T06:29:00.612Z,1020
2023-04-09T06:41:00.590Z,1020
2023-04-09T06:53:00.758Z,1020
2023-04-09T07:05:00.706Z,1020
2023-04-09T07:17:00.624Z,1020
2023-04-09T07:29:00.612Z,1020
2023-04-09T07:41:00.740Z,1020
2023-04-09T07:53:00.766Z,1020
2023-04-09T08:05:00.763Z,1021
2023-04-09T08:17:00.847Z,1020
2023-04-09T08:29:00.774Z,1020
2023-04-09T08:41:00.754Z,1020
2023-04-09T08:53:00.705Z,1020
2023-04-09T09:05:00.958Z,1020
2023-04-09T09:17:01.280Z,1020
2023-04-09T09:29:00.801Z,1020
2023-04-09T09:41:00.760Z,1020
2023-04-09T09:53:00.834Z,1020
2023-04-09T10:05:00.911Z,1020
2023-04-09T10:17:00.878Z,1020
2023-04-09T10:29:00.810Z,1019
2023-04-09T10:41:00.997Z,1019
2023-04-09T10:53:00.983Z,1019
2023-04-09T11:05:00.995Z,1019
2023-04-09T11:17:01.385Z,1019
2023-04-09T11:29:00.843Z,1020
2023-04-09T11:41:00.971Z,1020
2023-04-09T11:53:00.993Z,1020
2023-04-09T12:05:00.945Z,1020
2023-04-09T12:17:00.898Z,1020
2023-04-09T12:29:01.013Z,1020
2023-04-09T12:41:01.028Z,1020
2023-04-09T12:53:00.996Z,1019
2023-04-09T13:05:01.147Z,1019
2023-04-09T13:17:01.110Z,1019
2023-04-09T13:29:01.049Z,1019
2023-04-09T13:41:00.979Z,1019
2023-04-09T13:53:01.205Z,1019
2023-04-09T14:05:01.086Z,1018
2023-04-09T14:17:01.078Z,1019
2023-04-09T14:29:01.005Z,1018
2023-04-09T14:41:01.205Z,1018
2023-04-09T14:53:01.154Z,1018
2023-04-09T15:05:01.142Z,1017
2023-04-09T15:17:01.254Z,1017
2023-04-09T15:29:01.215Z,1017
2023-04-09T15:41:01.143Z,1016
2023-04-09T15:53:01.165Z,1016
2023-04-09T16:05:01.263Z,1016
2023-04-09T16:17:01.312Z,1016
2023-04-09T16:29:01.173Z,1016
2023-04-09T16:41:01.139Z,1016
2023-04-09T16:53:01.317Z,1015
2023-04-09T17:05:01.266Z,1015
2023-04-09T17:17:01.203Z,1015
2023-04-09T17:29:01.393Z,1015
2023-04-09T17:41:01.336Z,1015
2023-04-09T17:53:01.311Z,1015
2023-04-09T18:05:01.352Z,1015
2023-04-09T18:17:01.415Z,1014
2023-04-09T18:29:01.651Z,1014
2023-04-09T18:41:02.094Z,1014
2023-04-09T18:53:02.734Z,1014
2023-04-09T19:05:02.233Z,1014
2023-04-09T19:17:01.507Z,1014
2023-04-09T19:29:01.375Z,1014
2023-04-09T19:41:01.521Z,1014
2023-04-09T19:53:01.544Z,1014
2023-04-09T20:05:01.426Z,1014
2023-04-09T20:17:01.490Z,1014
2023-04-09T20:29:01.358Z,1014
2023-04-09T20:41:01.627Z,1013
2023-04-09T20:53:01.495Z,1013
2023-04-09T21:05:05.704Z,1013
2023-04-09T21:17:01.491Z,1013
2023-04-09T21:29:01.588Z,1012
2023-04-09T21:41:01.546Z,1012
2023-04-09T21:53:01.711Z,1012
2023-04-09T22:05:01.686Z,1012
2023-04-09T22:17:01.748Z,1012
2023-04-09T22:29:01.572Z,1011
2023-04-09T22:41:01.535Z,1011
2023-04-09T22:53:01.690Z,1011
2023-04-09T23:05:01.690Z,1011
2023-04-09T23:17:01.560Z,1011
2023-04-09T23:29:01.741Z,1011
2023-04-09T23:41:01.680Z,1010
2023-04-09T23:53:01.758Z,1010
